sensor_id;sensor_type;location;lat;lon;timestamp;pressure;altitude;pressure_sealevel;temperature;humidity
35291;BME280;21411;50.024;19.220;2023-03-19T00:00:22;99096.86;;;2.19;80.08
35291;BME280;21411;50.024;19.220;2023-03-19T00:03:08;99096.50;;;2.13;80.00
35291;BME280;21411;50.024;19.220;2023-03-19T00:05:35;99094.70;;;2.09;80.18
35291;BME280;21411;50.024;19.220;2023-03-19T00:08:02;99096.04;;;2.06;80.70
35291;BME280;21411;50.024;19.220;2023-03-19T00:10:29;99095.64;;;2.02;80.78
35291;BME280;21411;50.024;19.220;2023-03-19T00:12:55;99094.23;;;1.96;80.83
35291;BME280;21411;50.024;19.220;2023-03-19T00:15:22;99095.06;;;1.91;81.23
35291;BME280;21411;50.024;19.220;2023-03-19T00:17:49;99091.55;;;1.86;81.81
35291;BME280;21411;50.024;19.220;2023-03-19T00:20:15;99092.23;;;1.81;82.63
35291;BME280;21411;50.024;19.220;2023-03-19T00:22:43;99093.03;;;1.78;82.96
35291;BME280;21411;50.024;19.220;2023-03-19T00:25:10;99092.77;;;1.74;83.47
35291;BME280;21411;50.024;19.220;2023-03-19T00:27:37;99096.36;;;1.71;83.78
35291;BME280;21411;50.024;19.220;2023-03-19T00:30:06;99094.48;;;1.70;84.08
35291;BME280;21411;50.024;19.220;2023-03-19T00:32:33;99092.60;;;1.68;84.04
35291;BME280;21411;50.024;19.220;2023-03-19T00:35:00;99086.02;;;1.65;83.82
35291;BME280;21411;50.024;19.220;2023-03-19T00:37:27;99083.64;;;1.63;84.05
35291;BME280;21411;50.024;19.220;2023-03-19T00:39:54;99080.77;;;1.60;84.32
35291;BME280;21411;50.024;19.220;2023-03-19T00:42:22;99080.70;;;1.56;84.64
35291;BME280;21411;50.024;19.220;2023-03-19T00:44:48;99086.77;;;1.51;85.08
35291;BME280;21411;50.024;19.220;2023-03-19T00:47:15;99085.88;;;1.46;85.14
35291;BME280;21411;50.024;19.220;2023-03-19T00:49:42;99083.16;;;1.43;85.56
35291;BME280;21411;50.024;19.220;2023-03-19T00:52:09;99079.02;;;1.41;85.91
35291;BME280;21411;50.024;19.220;2023-03-19T00:54:35;99079.30;;;1.38;86.41
35291;BME280;21411;50.024;19.220;2023-03-19T00:57:02;99082.73;;;1.34;86.42
35291;BME280;21411;50.024;19.220;2023-03-19T00:59:30;99080.40;;;1.30;86.11
35291;BME280;21411;50.024;19.220;2023-03-19T01:01:56;99079.06;;;1.27;86.20
35291;BME280;21411;50.024;19.220;2023-03-19T01:04:23;99077.55;;;1.26;86.25
35291;BME280;21411;50.024;19.220;2023-03-19T01:06:50;99081.33;;;1.21;86.69
35291;BME280;21411;50.024;19.220;2023-03-19T01:09:17;99082.79;;;1.13;86.81
35291;BME280;21411;50.024;19.220;2023-03-19T01:11:43;99085.05;;;1.07;87.08
35291;BME280;21411;50.024;19.220;2023-03-19T01:14:10;99086.98;;;1.00;88.04
35291;BME280;21411;50.024;19.220;2023-03-19T01:16:37;99081.50;;;0.95;88.17
35291;BME280;21411;50.024;19.220;2023-03-19T01:19:04;99081.34;;;0.95;87.77
35291;BME280;21411;50.024;19.220;2023-03-19T01:21:31;99083.21;;;0.98;87.75
35291;BME280;21411;50.024;19.220;2023-03-19T01:23:58;99078.27;;;0.99;87.80
35291;BME280;21411;50.024;19.220;2023-03-19T01:26:25;99076.33;;;0.99;87.86
35291;BME280;21411;50.024;19.220;2023-03-19T01:28:52;99076.55;;;0.97;88.42
35291;BME280;21411;50.024;19.220;2023-03-19T01:31:19;99081.91;;;0.93;88.39
35291;BME280;21411;50.024;19.220;2023-03-19T01:33:47;99081.48;;;0.90;88.24
35291;BME280;21411;50.024;19.220;2023-03-19T01:36:13;99081.71;;;0.88;88.11
35291;BME280;21411;50.024;19.220;2023-03-19T01:38:40;99079.98;;;0.87;88.35
35291;BME280;21411;50.024;19.220;2023-03-19T01:41:07;99076.18;;;0.85;88.61
35291;BME280;21411;50.024;19.220;2023-03-19T01:43:34;99076.95;;;0.82;88.73
35291;BME280;21411;50.024;19.220;2023-03-19T01:46:05;99076.66;;;0.80;88.60
35291;BME280;21411;50.024;19.220;2023-03-19T01:48:42;99077.64;;;0.76;88.92
35291;BME280;21411;50.024;19.220;2023-03-19T01:51:11;99072.40;;;0.69;89.37
35291;BME280;21411;50.024;19.220;2023-03-19T01:53:43;99073.02;;;0.65;90.41
35291;BME280;21411;50.024;19.220;2023-03-19T01:56:28;99071.11;;;0.65;91.65
35291;BME280;21411;50.024;19.220;2023-03-19T01:59:02;99069.40;;;0.63;91.95
35291;BME280;21411;50.024;19.220;2023-03-19T02:01:32;99072.24;;;0.61;92.24
35291;BME280;21411;50.024;19.220;2023-03-19T02:04:01;99071.75;;;0.60;92.76
35291;BME280;21411;50.024;19.220;2023-03-19T02:06:29;99071.98;;;0.58;93.15
35291;BME280;21411;50.024;19.220;2023-03-19T02:08:56;99076.58;;;0.56;93.50
35291;BME280;21411;50.024;19.220;2023-03-19T02:11:24;99078.06;;;0.53;93.97
35291;BME280;21411;50.024;19.220;2023-03-19T02:13:51;99080.92;;;0.50;94.19
35291;BME280;21411;50.024;19.220;2023-03-19T02:16:18;99075.41;;;0.47;94.86
35291;BME280;21411;50.024;19.220;2023-03-19T02:18:46;99075.34;;;0.42;96.58
35291;BME280;21411;50.024;19.220;2023-03-19T02:21:15;99073.70;;;0.38;98.19
35291;BME280;21411;50.024;19.220;2023-03-19T02:24:02;99076.23;;;0.35;98.96
35291;BME280;21411;50.024;19.220;2023-03-19T02:26:34;99080.27;;;0.34;99.87
35291;BME280;21411;50.024;19.220;2023-03-19T02:29:01;99083.37;;;0.36;100.00
35291;BME280;21411;50.024;19.220;2023-03-19T02:31:29;99083.36;;;0.36;100.00
35291;BME280;21411;50.024;19.220;2023-03-19T02:36:57;99088.55;;;0.31;100.00
35291;BME280;21411;50.024;19.220;2023-03-19T02:39:40;99089.88;;;0.27;100.00
35291;BME280;21411;50.024;19.220;2023-03-19T02:42:10;99088.95;;;0.21;100.00
35291;BME280;21411;50.024;19.220;2023-03-19T02:44:37;99089.33;;;0.20;100.00
35291;BME280;21411;50.024;19.220;2023-03-19T02:47:04;99092.97;;;0.21;100.00
35291;BME280;21411;50.024;19.220;2023-03-19T02:49:31;99097.55;;;0.20;100.00
35291;BME280;21411;50.024;19.220;2023-03-19T02:51:57;99095.35;;;0.17;100.00
35291;BME280;21411;50.024;19.220;2023-03-19T02:54:24;99100.13;;;0.15;100.00
35291;BME280;21411;50.024;19.220;2023-03-19T02:56:50;99105.92;;;0.13;100.00
35291;BME280;21411;50.024;19.220;2023-03-19T02:59:18;99108.23;;;0.11;100.00
35291;BME280;21411;50.024;19.220;2023-03-19T03:01:46;99111.42;;;0.09;100.00
35291;BME280;21411;50.024;19.220;2023-03-19T03:04:12;99112.02;;;0.05;100.00
35291;BME280;21411;50.024;19.220;2023-03-19T03:06:42;99110.82;;;0.05;100.00
35291;BME280;21411;50.024;19.220;2023-03-19T03:09:11;99113.25;;;0.06;100.00
35291;BME280;21411;50.024;19.220;2023-03-19T03:11:38;99111.50;;;0.06;100.00
35291;BME280;21411;50.024;19.220;2023-03-19T03:14:09;99109.96;;;0.04;100.00
35291;BME280;21411;50.024;19.220;2023-03-19T03:16:37;99111.89;;;0.04;100.00
35291;BME280;21411;50.024;19.220;2023-03-19T03:19:04;99114.91;;;0.02;100.00
35291;BME280;21411;50.024;19.220;2023-03-19T03:21:31;99115.86;;;-0.02;100.00
35291;BME280;21411;50.024;19.220;2023-03-19T03:23:58;99116.27;;;-0.04;100.00
35291;BME280;21411;50.024;19.220;2023-03-19T03:26:24;99116.98;;;-0.05;100.00
35291;BME280;21411;50.024;19.220;2023-03-19T03:28:51;99117.36;;;-0.07;100.00
35291;BME280;21411;50.024;19.220;2023-03-19T03:31:18;99120.58;;;-0.10;100.00
35291;BME280;21411;50.024;19.220;2023-03-19T03:33:45;99122.73;;;-0.12;100.00
35291;BME280;21411;50.024;19.220;2023-03-19T03:36:12;99123.79;;;-0.13;100.00
35291;BME280;21411;50.024;19.220;2023-03-19T03:38:39;99121.02;;;-0.14;100.00
35291;BME280;21411;50.024;19.220;2023-03-19T03:41:05;99120.86;;;-0.15;100.00
35291;BME280;21411;50.024;19.220;2023-03-19T03:43:32;99118.79;;;-0.17;100.00
35291;BME280;21411;50.024;19.220;2023-03-19T03:45:59;99119.04;;;-0.19;100.00
35291;BME280;21411;50.024;19.220;2023-03-19T03:48:26;99120.48;;;-0.21;100.00
35291;BME280;21411;50.024;19.220;2023-03-19T03:50:52;99121.21;;;-0.23;100.00
35291;BME280;21411;50.024;19.220;2023-03-19T03:53:19;99121.95;;;-0.26;100.00
35291;BME280;21411;50.024;19.220;2023-03-19T03:55:46;99121.70;;;-0.30;100.00
35291;BME280;21411;50.024;19.220;2023-03-19T03:58:12;99120.88;;;-0.32;100.00
35291;BME280;21411;50.024;19.220;2023-03-19T04:00:39;99117.78;;;-0.35;100.00
35291;BME280;21411;50.024;19.220;2023-03-19T04:03:06;99109.83;;;-0.30;100.00
35291;BME280;21411;50.024;19.220;2023-03-19T04:05:32;99110.73;;;-0.23;100.00
35291;BME280;21411;50.024;19.220;2023-03-19T04:07:59;99111.14;;;-0.18;100.00
35291;BME280;21411;50.024;19.220;2023-03-19T04:10:25;99109.48;;;-0.13;100.00
35291;BME280;21411;50.024;19.220;2023-03-19T04:12:53;99110.58;;;-0.08;100.00
35291;BME280;21411;50.024;19.220;2023-03-19T04:15:19;99115.88;;;-0.03;100.00
35291;BME280;21411;50.024;19.220;2023-03-19T04:17:47;99108.65;;;0.00;100.00
35291;BME280;21411;50.024;19.220;2023-03-19T04:20:14;99106.34;;;0.02;100.00
35291;BME280;21411;50.024;19.220;2023-03-19T04:22:44;99107.02;;;0.03;100.00
35291;BME280;21411;50.024;19.220;2023-03-19T04:25:10;99106.63;;;0.05;100.00
35291;BME280;21411;50.024;19.220;2023-03-19T04:27:37;99105.58;;;0.05;100.00
35291;BME280;21411;50.024;19.220;2023-03-19T04:30:04;99102.77;;;0.05;100.00
35291;BME280;21411;50.024;19.220;2023-03-19T04:32:31;99101.52;;;0.07;100.00
35291;BME280;21411;50.024;19.220;2023-03-19T04:34:58;99100.31;;;0.06;100.00
35291;BME280;21411;50.024;19.220;2023-03-19T04:37:25;99099.35;;;0.10;100.00
35291;BME280;21411;50.024;19.220;2023-03-19T04:39:52;99100.00;;;0.13;100.00
35291;BME280;21411;50.024;19.220;2023-03-19T04:42:20;99100.29;;;0.15;100.00
35291;BME280;21411;50.024;19.220;2023-03-19T04:44:47;99100.23;;;0.17;100.00
35291;BME280;21411;50.024;19.220;2023-03-19T04:47:14;99101.19;;;0.21;100.00
35291;BME280;21411;50.024;19.220;2023-03-19T04:49:40;99100.91;;;0.26;100.00
35291;BME280;21411;50.024;19.220;2023-03-19T04:52:07;99095.14;;;0.33;100.00
35291;BME280;21411;50.024;19.220;2023-03-19T04:54:34;99090.42;;;0.40;100.00
35291;BME280;21411;50.024;19.220;2023-03-19T04:57:01;99090.13;;;0.45;100.00
35291;BME280;21411;50.024;19.220;2023-03-19T04:59:28;99093.53;;;0.49;100.00
35291;BME280;21411;50.024;19.220;2023-03-19T05:01:54;99096.59;;;0.53;100.00
35291;BME280;21411;50.024;19.220;2023-03-19T05:04:21;99098.27;;;0.55;100.00
35291;BME280;21411;50.024;19.220;2023-03-19T05:06:49;99099.08;;;0.58;100.00
35291;BME280;21411;50.024;19.220;2023-03-19T05:09:15;99097.04;;;0.70;100.00
35291;BME280;21411;50.024;19.220;2023-03-19T05:11:42;99094.16;;;1.00;100.00
35291;BME280;21411;50.024;19.220;2023-03-19T05:14:08;99086.52;;;1.30;99.24
35291;BME280;21411;50.024;19.220;2023-03-19T05:16:35;99085.55;;;1.58;97.93
35291;BME280;21411;50.024;19.220;2023-03-19T05:19:02;99083.13;;;1.87;96.58
35291;BME280;21411;50.024;19.220;2023-03-19T05:21:29;99079.66;;;2.13;95.32
35291;BME280;21411;50.024;19.220;2023-03-19T05:23:55;99080.88;;;2.36;94.22
35291;BME280;21411;50.024;19.220;2023-03-19T05:26:22;99078.27;;;2.57;93.13
35291;BME280;21411;50.024;19.220;2023-03-19T05:28:49;99077.67;;;2.75;92.32
35291;BME280;21411;50.024;19.220;2023-03-19T05:31:15;99082.06;;;2.80;91.86
35291;BME280;21411;50.024;19.220;2023-03-19T05:33:42;99080.92;;;3.03;91.16
35291;BME280;21411;50.024;19.220;2023-03-19T05:36:08;99080.20;;;3.28;89.99
35291;BME280;21411;50.024;19.220;2023-03-19T05:38:35;99079.85;;;3.52;89.08
35291;BME280;21411;50.024;19.220;2023-03-19T05:41:06;99080.26;;;3.74;88.13
35291;BME280;21411;50.024;19.220;2023-03-19T05:43:33;99080.34;;;4.00;87.64
35291;BME280;21411;50.024;19.220;2023-03-19T05:46:00;99080.52;;;4.27;86.81
35291;BME280;21411;50.024;19.220;2023-03-19T05:48:27;99079.42;;;4.54;85.86
35291;BME280;21411;50.024;19.220;2023-03-19T05:50:53;99083.73;;;4.77;85.29
35291;BME280;21411;50.024;19.220;2023-03-19T05:53:20;99082.95;;;4.96;84.14
35291;BME280;21411;50.024;19.220;2023-03-19T05:55:48;99082.38;;;5.09;83.14
35291;BME280;21411;50.024;19.220;2023-03-19T05:58:14;99090.60;;;5.10;82.77
35291;BME280;21411;50.024;19.220;2023-03-19T06:00:42;99092.02;;;5.14;82.11
35291;BME280;21411;50.024;19.220;2023-03-19T06:03:08;99095.27;;;5.04;81.90
35291;BME280;21411;50.024;19.220;2023-03-19T06:05:35;99102.70;;;4.91;81.65
35291;BME280;21411;50.024;19.220;2023-03-19T06:08:02;99105.80;;;4.80;81.52
35291;BME280;21411;50.024;19.220;2023-03-19T06:10:29;99108.41;;;4.72;81.55
35291;BME280;21411;50.024;19.220;2023-03-19T06:12:56;99109.73;;;4.66;81.55
35291;BME280;21411;50.024;19.220;2023-03-19T06:15:22;99110.11;;;4.60;81.70
35291;BME280;21411;50.024;19.220;2023-03-19T06:17:49;99108.95;;;4.59;81.88
35291;BME280;21411;50.024;19.220;2023-03-19T06:20:16;99104.08;;;4.58;81.66
35291;BME280;21411;50.024;19.220;2023-03-19T06:22:43;99099.23;;;4.55;81.36
35291;BME280;21411;50.024;19.220;2023-03-19T06:25:10;99099.85;;;4.53;81.41
35291;BME280;21411;50.024;19.220;2023-03-19T06:27:37;99100.29;;;4.55;81.88
35291;BME280;21411;50.024;19.220;2023-03-19T06:30:04;99100.94;;;4.61;82.08
35291;BME280;21411;50.024;19.220;2023-03-19T06:32:31;99101.91;;;4.68;82.07
35291;BME280;21411;50.024;19.220;2023-03-19T06:34:58;99096.55;;;4.74;81.95
35291;BME280;21411;50.024;19.220;2023-03-19T06:37:24;99104.36;;;4.80;81.50
35291;BME280;21411;50.024;19.220;2023-03-19T06:39:52;99107.61;;;4.87;81.39
35291;BME280;21411;50.024;19.220;2023-03-19T06:42:20;99107.90;;;4.97;81.56
35291;BME280;21411;50.024;19.220;2023-03-19T06:44:47;99110.39;;;5.09;81.32
35291;BME280;21411;50.024;19.220;2023-03-19T06:47:14;99111.61;;;5.17;80.93
35291;BME280;21411;50.024;19.220;2023-03-19T06:49:41;99113.13;;;5.27;80.62
35291;BME280;21411;50.024;19.220;2023-03-19T06:52:08;99111.71;;;5.35;80.36
35291;BME280;21411;50.024;19.220;2023-03-19T06:54:34;99112.26;;;5.47;80.32
35291;BME280;21411;50.024;19.220;2023-03-19T06:57:01;99116.30;;;5.59;79.98
35291;BME280;21411;50.024;19.220;2023-03-19T06:59:28;99114.58;;;5.70;79.62
35291;BME280;21411;50.024;19.220;2023-03-19T07:01:55;99110.90;;;5.81;79.37
35291;BME280;21411;50.024;19.220;2023-03-19T07:04:22;99110.04;;;5.93;79.20
35291;BME280;21411;50.024;19.220;2023-03-19T07:06:49;99109.24;;;6.06;79.10
35291;BME280;21411;50.024;19.220;2023-03-19T07:09:16;99103.34;;;6.23;78.87
35291;BME280;21411;50.024;19.220;2023-03-19T07:11:43;99099.52;;;6.40;78.61
35291;BME280;21411;50.024;19.220;2023-03-19T07:14:09;99096.52;;;6.58;78.09
35291;BME280;21411;50.024;19.220;2023-03-19T07:16:36;99098.05;;;6.77;77.95
35291;BME280;21411;50.024;19.220;2023-03-19T07:19:03;99096.40;;;7.00;77.60
35291;BME280;21411;50.024;19.220;2023-03-19T07:21:30;99090.73;;;7.21;77.07
35291;BME280;21411;50.024;19.220;2023-03-19T07:23:57;99086.98;;;7.42;77.13
35291;BME280;21411;50.024;19.220;2023-03-19T07:26:23;99084.95;;;7.64;76.64
35291;BME280;21411;50.024;19.220;2023-03-19T07:28:51;99081.30;;;7.82;76.16
35291;BME280;21411;50.024;19.220;2023-03-19T07:31:18;99079.44;;;8.00;75.84
35291;BME280;21411;50.024;19.220;2023-03-19T07:33:45;99077.86;;;8.22;75.82
35291;BME280;21411;50.024;19.220;2023-03-19T07:36:11;99083.27;;;8.49;75.41
35291;BME280;21411;50.024;19.220;2023-03-19T07:38:38;99084.92;;;8.73;74.60
35291;BME280;21411;50.024;19.220;2023-03-19T07:41:05;99084.33;;;8.89;74.14
35291;BME280;21411;50.024;19.220;2023-03-19T07:43:33;99086.33;;;9.00;73.67
35291;BME280;21411;50.024;19.220;2023-03-19T07:46:00;99087.00;;;9.10;73.33
35291;BME280;21411;50.024;19.220;2023-03-19T07:48:27;99085.40;;;9.22;73.01
35291;BME280;21411;50.024;19.220;2023-03-19T07:50:54;99082.00;;;9.34;72.27
35291;BME280;21411;50.024;19.220;2023-03-19T07:53:21;99081.20;;;9.42;71.50
35291;BME280;21411;50.024;19.220;2023-03-19T07:55:48;99081.61;;;9.50;71.30
35291;BME280;21411;50.024;19.220;2023-03-19T07:58:14;99080.35;;;9.59;71.41
35291;BME280;21411;50.024;19.220;2023-03-19T08:00:42;99079.66;;;9.67;71.17
35291;BME280;21411;50.024;19.220;2023-03-19T08:03:11;99076.14;;;9.75;70.89
35291;BME280;21411;50.024;19.220;2023-03-19T08:05:38;99075.23;;;9.84;70.74
35291;BME280;21411;50.024;19.220;2023-03-19T08:08:05;99075.41;;;9.90;70.31
35291;BME280;21411;50.024;19.220;2023-03-19T08:10:32;99068.11;;;9.96;70.08
35291;BME280;21411;50.024;19.220;2023-03-19T08:12:58;99067.06;;;10.04;69.67
35291;BME280;21411;50.024;19.220;2023-03-19T08:15:26;99075.10;;;10.14;69.48
35291;BME280;21411;50.024;19.220;2023-03-19T08:18:00;99071.52;;;10.23;68.99
35291;BME280;21411;50.024;19.220;2023-03-19T08:20:27;99069.46;;;10.36;68.57
35291;BME280;21411;50.024;19.220;2023-03-19T08:22:54;99066.95;;;10.50;68.63
35291;BME280;21411;50.024;19.220;2023-03-19T08:25:22;99061.25;;;10.64;68.31
35291;BME280;21411;50.024;19.220;2023-03-19T08:27:49;99064.21;;;10.78;67.98
35291;BME280;21411;50.024;19.220;2023-03-19T08:30:16;99063.05;;;10.93;67.19
35291;BME280;21411;50.024;19.220;2023-03-19T08:32:43;99058.60;;;11.04;66.36
35291;BME280;21411;50.024;19.220;2023-03-19T08:35:12;99059.11;;;11.12;66.14
35291;BME280;21411;50.024;19.220;2023-03-19T08:37:39;99053.34;;;11.21;66.04
35291;BME280;21411;50.024;19.220;2023-03-19T08:40:07;99057.49;;;11.27;65.60
35291;BME280;21411;50.024;19.220;2023-03-19T08:42:34;99056.24;;;11.33;64.78
35291;BME280;21411;50.024;19.220;2023-03-19T08:45:30;99061.66;;;11.44;65.05
35291;BME280;21411;50.024;19.220;2023-03-19T08:47:57;99060.42;;;11.62;64.85
35291;BME280;21411;50.024;19.220;2023-03-19T08:50:24;99061.20;;;11.71;64.26
35291;BME280;21411;50.024;19.220;2023-03-19T08:52:50;99062.93;;;11.77;63.85
35291;BME280;21411;50.024;19.220;2023-03-19T08:55:17;99067.65;;;11.86;63.80
35291;BME280;21411;50.024;19.220;2023-03-19T08:57:44;99062.20;;;11.93;63.22
35291;BME280;21411;50.024;19.220;2023-03-19T09:00:11;99061.57;;;11.99;62.62
35291;BME280;21411;50.024;19.220;2023-03-19T09:02:38;99060.15;;;12.04;62.14
35291;BME280;21411;50.024;19.220;2023-03-19T09:05:06;99060.86;;;12.09;61.76
35291;BME280;21411;50.024;19.220;2023-03-19T09:07:33;99058.14;;;12.17;61.44
35291;BME280;21411;50.024;19.220;2023-03-19T09:09:59;99056.89;;;12.29;61.05
35291;BME280;21411;50.024;19.220;2023-03-19T09:12:26;99054.54;;;12.40;60.63
35291;BME280;21411;50.024;19.220;2023-03-19T09:14:53;99056.17;;;12.53;60.51
35291;BME280;21411;50.024;19.220;2023-03-19T09:17:19;99057.24;;;12.68;59.82
35291;BME280;21411;50.024;19.220;2023-03-19T09:19:46;99054.50;;;12.81;59.06
35291;BME280;21411;50.024;19.220;2023-03-19T09:22:13;99053.61;;;12.93;58.39
35291;BME280;21411;50.024;19.220;2023-03-19T09:24:40;99056.41;;;13.08;57.97
35291;BME280;21411;50.024;19.220;2023-03-19T09:27:06;99049.28;;;13.22;57.86
35291;BME280;21411;50.024;19.220;2023-03-19T09:29:33;99048.67;;;13.34;57.42
35291;BME280;21411;50.024;19.220;2023-03-19T09:32:00;99047.99;;;13.48;57.20
35291;BME280;21411;50.024;19.220;2023-03-19T09:34:26;99044.42;;;13.64;56.82
35291;BME280;21411;50.024;19.220;2023-03-19T09:36:53;99046.15;;;13.76;55.98
35291;BME280;21411;50.024;19.220;2023-03-19T09:39:20;99045.72;;;13.90;55.84
35291;BME280;21411;50.024;19.220;2023-03-19T09:44:42;99042.08;;;14.18;55.57
35291;BME280;21411;50.024;19.220;2023-03-19T09:49:56;99037.33;;;14.43;54.25
35291;BME280;21411;50.024;19.220;2023-03-19T09:55:30;99035.92;;;14.52;52.74
35291;BME280;21411;50.024;19.220;2023-03-19T09:57:55;99028.98;;;14.54;52.23
35291;BME280;21411;50.024;19.220;2023-03-19T10:00:35;99028.43;;;14.58;51.82
35291;BME280;21411;50.024;19.220;2023-03-19T10:11:57;99028.30;;;15.08;50.54
35291;BME280;21411;50.024;19.220;2023-03-19T10:17:15;99019.57;;;15.48;48.59
35291;BME280;21411;50.024;19.220;2023-03-19T10:22:19;99009.29;;;15.71;48.04
35291;BME280;21411;50.024;19.220;2023-03-19T10:24:49;99001.77;;;15.98;48.18
35291;BME280;21411;50.024;19.220;2023-03-19T10:27:20;98999.91;;;16.17;48.17
35291;BME280;21411;50.024;19.220;2023-03-19T10:29:47;98998.05;;;16.31;47.84
35291;BME280;21411;50.024;19.220;2023-03-19T10:34:51;98994.98;;;16.51;47.75
35291;BME280;21411;50.024;19.220;2023-03-19T10:37:22;98993.58;;;16.57;47.23
35291;BME280;21411;50.024;19.220;2023-03-19T10:39:55;98989.29;;;16.49;45.79
35291;BME280;21411;50.024;19.220;2023-03-19T10:42:45;98989.73;;;16.36;45.82
35291;BME280;21411;50.024;19.220;2023-03-19T10:45:29;98987.84;;;16.41;46.04
35291;BME280;21411;50.024;19.220;2023-03-19T10:47:58;98984.95;;;16.45;45.79
35291;BME280;21411;50.024;19.220;2023-03-19T10:53:06;98983.34;;;16.35;44.43
35291;BME280;21411;50.024;19.220;2023-03-19T10:55:53;98978.77;;;16.32;44.95
35291;BME280;21411;50.024;19.220;2023-03-19T10:58:25;98971.95;;;16.32;44.32
35291;BME280;21411;50.024;19.220;2023-03-19T11:01:01;98974.63;;;16.29;44.53
35291;BME280;21411;50.024;19.220;2023-03-19T11:03:33;98974.73;;;16.29;44.56
35291;BME280;21411;50.024;19.220;2023-03-19T11:08:52;98964.37;;;16.35;44.66
35291;BME280;21411;50.024;19.220;2023-03-19T11:11:43;98964.26;;;16.50;44.31
35291;BME280;21411;50.024;19.220;2023-03-19T11:14:15;98958.42;;;16.63;44.13
35291;BME280;21411;50.024;19.220;2023-03-19T11:17:20;98953.44;;;16.68;43.67
35291;BME280;21411;50.024;19.220;2023-03-19T11:19:49;98948.67;;;16.71;43.67
35291;BME280;21411;50.024;19.220;2023-03-19T11:22:21;98947.25;;;16.77;43.78
35291;BME280;21411;50.024;19.220;2023-03-19T11:24:51;98942.98;;;16.84;43.94
35291;BME280;21411;50.024;19.220;2023-03-19T11:27:26;98938.53;;;16.84;43.12
35291;BME280;21411;50.024;19.220;2023-03-19T11:29:53;98940.32;;;16.80;42.85
35291;BME280;21411;50.024;19.220;2023-03-19T11:32:32;98941.34;;;16.75;42.89
35291;BME280;21411;50.024;19.220;2023-03-19T11:35:10;98934.64;;;16.72;42.50
35291;BME280;21411;50.024;19.220;2023-03-19T11:37:59;98932.28;;;16.67;42.19
35291;BME280;21411;50.024;19.220;2023-03-19T11:46:17;98921.52;;;16.76;42.27
35291;BME280;21411;50.024;19.220;2023-03-19T11:51:59;98915.84;;;16.69;42.13
35291;BME280;21411;50.024;19.220;2023-03-19T11:57:30;98905.31;;;16.76;41.65
35291;BME280;21411;50.024;19.220;2023-03-19T12:03:19;98903.48;;;16.69;40.59
35291;BME280;21411;50.024;19.220;2023-03-19T12:11:02;98890.41;;;16.45;39.70
35291;BME280;21411;50.024;19.220;2023-03-19T12:19:19;98884.15;;;16.45;39.12
35291;BME280;21411;50.024;19.220;2023-03-19T12:22:37;98883.84;;;16.41;39.53
35291;BME280;21411;50.024;19.220;2023-03-19T12:25:23;98885.42;;;16.47;39.50
35291;BME280;21411;50.024;19.220;2023-03-19T12:35:45;98868.93;;;16.76;38.59
35291;BME280;21411;50.024;19.220;2023-03-19T12:41:19;98867.35;;;16.85;38.32
35291;BME280;21411;50.024;19.220;2023-03-19T12:44:02;98863.44;;;16.87;38.04
35291;BME280;21411;50.024;19.220;2023-03-19T12:46:35;98859.18;;;16.90;38.61
35291;BME280;21411;50.024;19.220;2023-03-19T12:51:53;98857.92;;;17.08;39.30
35291;BME280;21411;50.024;19.220;2023-03-19T12:54:26;98854.23;;;17.17;39.35
35291;BME280;21411;50.024;19.220;2023-03-19T12:56:58;98855.77;;;17.24;38.72
35291;BME280;21411;50.024;19.220;2023-03-19T12:59:32;98853.33;;;17.17;38.33
35291;BME280;21411;50.024;19.220;2023-03-19T13:02:24;98857.55;;;17.09;38.17
35291;BME280;21411;50.024;19.220;2023-03-19T13:04:56;98854.56;;;17.04;38.03
35291;BME280;21411;50.024;19.220;2023-03-19T13:07:30;98852.15;;;17.05;38.01
35291;BME280;21411;50.024;19.220;2023-03-19T13:10:03;98850.69;;;17.13;38.35
35291;BME280;21411;50.024;19.220;2023-03-19T13:12:34;98848.88;;;17.22;38.12
35291;BME280;21411;50.024;19.220;2023-03-19T13:15:14;98846.34;;;17.32;37.87
35291;BME280;21411;50.024;19.220;2023-03-19T13:23:38;98836.86;;;17.33;37.20
35291;BME280;21411;50.024;19.220;2023-03-19T13:26:09;98840.02;;;17.27;37.26
35291;BME280;21411;50.024;19.220;2023-03-19T13:28:53;98837.01;;;17.26;37.31
35291;BME280;21411;50.024;19.220;2023-03-19T13:31:25;98832.67;;;17.25;36.84
35291;BME280;21411;50.024;19.220;2023-03-19T13:34:00;98834.05;;;17.16;36.57
35291;BME280;21411;50.024;19.220;2023-03-19T13:36:29;98837.89;;;17.06;36.58
35291;BME280;21411;50.024;19.220;2023-03-19T13:38:58;98834.08;;;17.10;37.00
35291;BME280;21411;50.024;19.220;2023-03-19T13:44:41;98830.36;;;17.24;36.91
35291;BME280;21411;50.024;19.220;2023-03-19T13:50:09;98826.85;;;17.44;37.52
35291;BME280;21411;50.024;19.220;2023-03-19T13:52:47;98823.27;;;17.55;37.27
35291;BME280;21411;50.024;19.220;2023-03-19T14:00:57;98811.45;;;17.36;35.96
35291;BME280;21411;50.024;19.220;2023-03-19T14:03:24;98809.23;;;17.35;36.65
35291;BME280;21411;50.024;19.220;2023-03-19T14:05:54;98807.66;;;17.38;36.87
35291;BME280;21411;50.024;19.220;2023-03-19T14:08:27;98807.63;;;17.41;36.51
35291;BME280;21411;50.024;19.220;2023-03-19T14:10:57;98804.93;;;17.40;36.27
35291;BME280;21411;50.024;19.220;2023-03-19T14:16:00;98800.41;;;17.28;36.41
35291;BME280;21411;50.024;19.220;2023-03-19T14:18:28;98799.23;;;17.16;35.76
35291;BME280;21411;50.024;19.220;2023-03-19T14:21:00;98801.47;;;17.00;34.92
35291;BME280;21411;50.024;19.220;2023-03-19T14:23:27;98799.10;;;16.86;35.08
35291;BME280;21411;50.024;19.220;2023-03-19T14:34:00;98794.52;;;16.81;35.83
35291;BME280;21411;50.024;19.220;2023-03-19T14:36:28;98785.65;;;16.82;35.74
35291;BME280;21411;50.024;19.220;2023-03-19T14:38:58;98786.71;;;16.82;35.85
35291;BME280;21411;50.024;19.220;2023-03-19T14:41:30;98787.60;;;16.78;35.28
35291;BME280;21411;50.024;19.220;2023-03-19T14:52:09;98786.68;;;16.86;36.36